Lpg_melina — SYFW — position and weather

sailwx.info

Track history (hours):
 
Tides and Currents Weather Stations Pressure Air Temp Water Temp Dewpoint Dewpoint Depression Visibility Wind Speed Wind Dir Waves Ship Positions

Lpg_melina

Last reported at 2018-Jun-23 06:01 UTC. Time now 2018-Jun-23 06:21 UTC.
Position N 37°53' E 023°38'.

Length 114 m; draft 5.2 m.

Type: Ship (hazmat cat A). MMSI: 239953000.

Date/timePositionNaut miles runAvg speedWind from/ knotsBaromVisibWave heightAir tempDewpointWater temp
2018-Jun-23 06:01N 37°53' E 023°38'510.0
2018-Jun-23 05:31N 37°48' E 023°40'610.9
2018-Jun-23 05:00N 37°43' E 023°43'510.5
2018-Jun-23 04:30N 37°39' E 023°48'610.6
2018-Jun-23 03:56N 37°37' E 023°55'510.5
2018-Jun-23 03:30N 37°37' E 024°01'1511.2
2018-Jun-23 02:10N 37°44' E 024°17'64 9.6
2018-Jun-22 19:31N 38°48' E 024°06'112.3
2018-Jun-22 19:26N 38°48' E 024°05'  
2018-Jun-18 13:21N 37°39' E 023°45'3 9.9
2018-Jun-18 13:00N 37°41' E 023°42'510.9
2018-Jun-18 12:30N 37°46' E 023°39'510.7
2018-Jun-18 12:00N 37°51' E 023°37'5 9.9
2018-Jun-18 11:31N 37°56' E 023°36'4 7.8
2018-Jun-18 11:00N 37°59' E 023°33'3 6.6
2018-Jun-18 10:30N 38°02' E 023°36'0 0.0
2018-Jun-18 09:56N 38°02' E 023°36'0 0.0
2018-Jun-18 09:29N 38°02' E 023°36'0 0.0
2018-Jun-18 08:59N 38°02' E 023°36'0 0.0
2018-Jun-18 08:29N 38°02' E 023°36'0 0.0
2018-Jun-18 07:56N 38°02' E 023°36'0 0.0
2018-Jun-18 07:29N 38°02' E 023°36'0 0.0
2018-Jun-18 06:59N 38°02' E 023°36'0 0.0
2018-Jun-18 06:29N 38°02' E 023°36'0 0.0
2018-Jun-18 05:59N 38°02' E 023°36'0 0.0
2018-Jun-18 05:29N 38°02' E 023°36'0 0.0
2018-Jun-18 04:59N 38°02' E 023°36'0 0.0
2018-Jun-18 04:29N 38°02' E 023°36'0 0.0
2018-Jun-18 03:59N 38°02' E 023°36'0 0.0
2018-Jun-18 03:29N 38°02' E 023°36'0 0.0
2018-Jun-18 02:56N 38°02' E 023°36'0 0.0
2018-Jun-18 02:26N 38°02' E 023°36'0 0.0
2018-Jun-18 01:59N 38°02' E 023°36'0 0.0
2018-Jun-18 01:29N 38°02' E 023°36'0 0.0
2018-Jun-18 00:59N 38°02' E 023°36'0 0.0
2018-Jun-18 00:29N 38°02' E 023°36'0 0.0
2018-Jun-17 23:59N 38°02' E 023°36'0 0.0
2018-Jun-17 23:29N 38°02' E 023°36'0 0.0
2018-Jun-17 22:59N 38°02' E 023°36'0 0.0
2018-Jun-17 22:29N 38°02' E 023°36'0 0.0
2018-Jun-17 21:59N 38°02' E 023°36'0 0.0
2018-Jun-17 21:29N 38°02' E 023°36'0 0.0
2018-Jun-17 20:59N 38°02' E 023°36'0 0.0
2018-Jun-17 20:29N 38°02' E 023°36'0 0.0
2018-Jun-17 19:59N 38°02' E 023°36'0 0.0
2018-Jun-17 19:29N 38°02' E 023°36'0 0.0
2018-Jun-17 18:59N 38°02' E 023°36'0 0.0
2018-Jun-17 18:29N 38°02' E 023°36'0 0.0
2018-Jun-17 17:59N 38°02' E 023°36'0 0.0
2018-Jun-17 17:29N 38°02' E 023°36'0 0.0
2018-Jun-17 17:00N 38°02' E 023°36'0 0.0
2018-Jun-17 16:29N 38°02' E 023°36'0 0.0
2018-Jun-17 15:59N 38°02' E 023°36'0 0.0
2018-Jun-17 15:29N 38°02' E 023°36'0 0.0
2018-Jun-17 14:59N 38°02' E 023°36'0 0.0
2018-Jun-17 14:29N 38°02' E 023°36'0 0.0
2018-Jun-17 13:59N 38°02' E 023°36'0 0.0
2018-Jun-17 13:29N 38°02' E 023°36'0 0.0
2018-Jun-17 12:59N 38°02' E 023°36'0 0.0
2018-Jun-17 12:26N 38°02' E 023°36'0 0.0
2018-Jun-17 11:59N 38°02' E 023°36'0 0.0
2018-Jun-17 11:29N 38°02' E 023°36'0 0.0
2018-Jun-17 10:56N 38°02' E 023°36'1 2.7
2018-Jun-17 10:31N 38°01' E 023°34'4 8.4
2018-Jun-17 10:01N 37°57' E 023°34'5 9.4
2018-Jun-17 09:31N 37°53' E 023°37'612.5
2018-Jun-17 09:00N 37°47' E 023°41'612.4
2018-Jun-17 08:31N 37°42' E 023°45'611.4
2018-Jun-17 08:00N 37°39' E 023°51'911.3
2018-Jun-17 07:14N 37°37' E 024°01'311.3
2018-Jun-17 06:57N 37°37' E 024°05'1111.7
2018-Jun-17 06:01N 37°44' E 024°16'011.7
2018-Jun-17 05:58N 37°44' E 024°17'  
2018-Jun-14 19:20N 37°37' E 023°51'411.2
2018-Jun-14 19:00N 37°38' E 023°46'510.0
2018-Jun-14 18:30N 37°42' E 023°42'510.9
2018-Jun-14 18:00N 37°46' E 023°39'510.5
2018-Jun-14 17:30N 37°52' E 023°37'5 9.8
2018-Jun-14 17:00N 37°56' E 023°36'4 7.1
2018-Jun-14 16:30N 37°59' E 023°33'4 7.1
2018-Jun-14 16:00N 38°02' E 023°36'0 0.3
2018-Jun-14 15:29N 38°02' E 023°36'0 0.0
2018-Jun-14 14:59N 38°02' E 023°36'0 0.0
2018-Jun-14 14:26N 38°02' E 023°36'0 0.0
2018-Jun-14 13:59N 38°02' E 023°36'0 0.0
2018-Jun-14 13:23N 38°02' E 023°36'0 0.0
2018-Jun-14 12:59N 38°02' E 023°36'0 0.0
2018-Jun-14 12:26N 38°02' E 023°36'0 0.0
2018-Jun-14 11:56N 38°02' E 023°36'0 0.0
2018-Jun-14 11:20N 38°02' E 023°36'0 0.0
2018-Jun-14 10:50N 38°02' E 023°36'0 0.0
2018-Jun-14 10:26N 38°02' E 023°36'0 0.0
2018-Jun-14 09:56N 38°02' E 023°36'0 0.0
2018-Jun-14 09:26N 38°02' E 023°36'0 0.0
2018-Jun-14 08:53N 38°02' E 023°36'0 0.0
2018-Jun-14 08:14N 38°02' E 023°36'0 0.0
2018-Jun-14 07:59N 38°02' E 023°36'0 0.0
2018-Jun-14 07:29N 38°02' E 023°36'0 0.0
2018-Jun-14 06:56N 38°02' E 023°36'0 0.0
2018-Jun-14 06:26N 38°02' E 023°36'0 0.0
2018-Jun-14 05:53N 38°02' E 023°36'0 0.0
2018-Jun-14 05:29N 38°02' E 023°36'0 0.0
2018-Jun-14 04:53N 38°02' E 023°36'0 0.0
2018-Jun-14 04:26N 38°02' E 023°36'0 0.0
2018-Jun-14 03:50N 38°02' E 023°36'0 0.0
2018-Jun-14 03:26N 38°02' E 023°36'0 0.0
2018-Jun-14 02:56N 38°02' E 023°36'0 0.0
2018-Jun-14 02:14N 38°02' E 023°36'0 0.0
2018-Jun-14 01:56N 38°02' E 023°36'0 0.0
2018-Jun-14 01:14N 38°02' E 023°36'0 0.0
2018-Jun-14 00:53N 38°02' E 023°36'0 0.0
2018-Jun-14 00:14N 38°02' E 023°36'0 0.0
2018-Jun-13 23:56N 38°02' E 023°36'0 0.0
2018-Jun-13 22:23N 38°02' E 023°36'0 0.0
2018-Jun-13 21:56N 38°02' E 023°36'0 0.4
2018-Jun-13 21:30N 38°02' E 023°36'3 5.2
2018-Jun-13 21:00N 38°01' E 023°32'1 1.2
2018-Jun-13 20:28N 38°01' E 023°31'0 0.1
2018-Jun-13 19:58N 38°01' E 023°31'0 0.1
2018-Jun-13 19:28N 38°01' E 023°32'0 0.0
2018-Jun-13 18:58N 38°01' E 023°31'0 0.0
2018-Jun-13 18:28N 38°01' E 023°31'0 0.0
2018-Jun-13 17:58N 38°01' E 023°31'0 0.0
2018-Jun-13 17:28N 38°01' E 023°31'0 0.0
2018-Jun-13 16:58N 38°01' E 023°31'0 0.0
2018-Jun-13 16:28N 38°01' E 023°31'0 0.0
2018-Jun-13 15:58N 38°01' E 023°31'0 0.0
2018-Jun-13 15:28N 38°01' E 023°32'0 0.0
2018-Jun-13 14:58N 38°01' E 023°32'0 0.0
2018-Jun-13 14:28N 38°01' E 023°31'0 0.0
2018-Jun-13 13:58N 38°01' E 023°31'0 0.0
2018-Jun-13 13:28N 38°01' E 023°31'0 0.0
2018-Jun-13 12:58N 38°01' E 023°31'0 0.0
2018-Jun-13 12:28N 38°01' E 023°31'0 0.0
2018-Jun-13 11:58N 38°01' E 023°32'0 0.0
2018-Jun-13 11:28N 38°01' E 023°32'0 0.0
2018-Jun-13 10:58N 38°01' E 023°32'0 0.0
2018-Jun-13 10:28N 38°01' E 023°32'0 0.0
2018-Jun-13 09:58N 38°01' E 023°32'0 0.0
2018-Jun-13 09:28N 38°01' E 023°32'0 0.0
2018-Jun-13 08:58N 38°01' E 023°32'0 0.0
2018-Jun-13 08:28N 38°01' E 023°32'0 0.1
2018-Jun-13 07:58N 38°01' E 023°31'0 0.0
2018-Jun-13 07:28N 38°01' E 023°31'0 0.1
2018-Jun-13 06:58N 38°01' E 023°32'0 0.0
2018-Jun-13 06:28N 38°01' E 023°32'  
Track history (hours):
 
Tides and Currents Weather Stations Pressure Air Temp Water Temp Dewpoint Dewpoint Depression Visibility Wind Speed Wind Dir Waves Ship Positions

Lpg_melina

Last reported at 2018-Jun-23 06:01 UTC. Time now 2018-Jun-23 06:21 UTC.
Position N 37°53' E 023°38'.

Length 114 m; draft 5.2 m.

Type: Ship (hazmat cat A). MMSI: 239953000.

Date/timePositionNaut miles runAvg speedWind from/ knotsBaromVisibWave heightAir tempDewpointWater temp
2018-Jun-23 06:01N 37°53' E 023°38'510.0
2018-Jun-23 05:31N 37°48' E 023°40'610.9
2018-Jun-23 05:00N 37°43' E 023°43'510.5
2018-Jun-23 04:30N 37°39' E 023°48'610.6
2018-Jun-23 03:56N 37°37' E 023°55'510.5
2018-Jun-23 03:30N 37°37' E 024°01'1511.2
2018-Jun-23 02:10N 37°44' E 024°17'64 9.6
2018-Jun-22 19:31N 38°48' E 024°06'112.3
2018-Jun-22 19:26N 38°48' E 024°05'  
2018-Jun-18 13:21N 37°39' E 023°45'3 9.9
2018-Jun-18 13:00N 37°41' E 023°42'510.9
2018-Jun-18 12:30N 37°46' E 023°39'510.7
2018-Jun-18 12:00N 37°51' E 023°37'5 9.9
2018-Jun-18 11:31N 37°56' E 023°36'4 7.8
2018-Jun-18 11:00N 37°59' E 023°33'3 6.6
2018-Jun-18 10:30N 38°02' E 023°36'0 0.0
2018-Jun-18 09:56N 38°02' E 023°36'0 0.0
2018-Jun-18 09:29N 38°02' E 023°36'0 0.0
2018-Jun-18 08:59N 38°02' E 023°36'0 0.0
2018-Jun-18 08:29N 38°02' E 023°36'0 0.0
2018-Jun-18 07:56N 38°02' E 023°36'0 0.0
2018-Jun-18 07:29N 38°02' E 023°36'0 0.0
2018-Jun-18 06:59N 38°02' E 023°36'0 0.0
2018-Jun-18 06:29N 38°02' E 023°36'0 0.0
2018-Jun-18 05:59N 38°02' E 023°36'0 0.0
2018-Jun-18 05:29N 38°02' E 023°36'0 0.0
2018-Jun-18 04:59N 38°02' E 023°36'0 0.0
2018-Jun-18 04:29N 38°02' E 023°36'0 0.0
2018-Jun-18 03:59N 38°02' E 023°36'0 0.0
2018-Jun-18 03:29N 38°02' E 023°36'0 0.0
2018-Jun-18 02:56N 38°02' E 023°36'0 0.0
2018-Jun-18 02:26N 38°02' E 023°36'0 0.0
2018-Jun-18 01:59N 38°02' E 023°36'0 0.0
2018-Jun-18 01:29N 38°02' E 023°36'0 0.0
2018-Jun-18 00:59N 38°02' E 023°36'0 0.0
2018-Jun-18 00:29N 38°02' E 023°36'0 0.0
2018-Jun-17 23:59N 38°02' E 023°36'0 0.0
2018-Jun-17 23:29N 38°02' E 023°36'0 0.0
2018-Jun-17 22:59N 38°02' E 023°36'0 0.0
2018-Jun-17 22:29N 38°02' E 023°36'0 0.0
2018-Jun-17 21:59N 38°02' E 023°36'0 0.0
2018-Jun-17 21:29N 38°02' E 023°36'0 0.0
2018-Jun-17 20:59N 38°02' E 023°36'0 0.0
2018-Jun-17 20:29N 38°02' E 023°36'0 0.0
2018-Jun-17 19:59N 38°02' E 023°36'0 0.0
2018-Jun-17 19:29N 38°02' E 023°36'0 0.0
2018-Jun-17 18:59N 38°02' E 023°36'0 0.0
2018-Jun-17 18:29N 38°02' E 023°36'0 0.0
2018-Jun-17 17:59N 38°02' E 023°36'0 0.0
2018-Jun-17 17:29N 38°02' E 023°36'0 0.0
2018-Jun-17 17:00N 38°02' E 023°36'0 0.0
2018-Jun-17 16:29N 38°02' E 023°36'0 0.0
2018-Jun-17 15:59N 38°02' E 023°36'0 0.0
2018-Jun-17 15:29N 38°02' E 023°36'0 0.0
2018-Jun-17 14:59N 38°02' E 023°36'0 0.0
2018-Jun-17 14:29N 38°02' E 023°36'0 0.0
2018-Jun-17 13:59N 38°02' E 023°36'0 0.0
2018-Jun-17 13:29N 38°02' E 023°36'0 0.0
2018-Jun-17 12:59N 38°02' E 023°36'0 0.0
2018-Jun-17 12:26N 38°02' E 023°36'0 0.0
2018-Jun-17 11:59N 38°02' E 023°36'0 0.0
2018-Jun-17 11:29N 38°02' E 023°36'0 0.0
2018-Jun-17 10:56N 38°02' E 023°36'1 2.7
2018-Jun-17 10:31N 38°01' E 023°34'4 8.4
2018-Jun-17 10:01N 37°57' E 023°34'5 9.4
2018-Jun-17 09:31N 37°53' E 023°37'612.5
2018-Jun-17 09:00N 37°47' E 023°41'612.4
2018-Jun-17 08:31N 37°42' E 023°45'611.4
2018-Jun-17 08:00N 37°39' E 023°51'911.3
2018-Jun-17 07:14N 37°37' E 024°01'311.3
2018-Jun-17 06:57N 37°37' E 024°05'1111.7
2018-Jun-17 06:01N 37°44' E 024°16'011.7
2018-Jun-17 05:58N 37°44' E 024°17'  
2018-Jun-14 19:20N 37°37' E 023°51'411.2
2018-Jun-14 19:00N 37°38' E 023°46'510.0
2018-Jun-14 18:30N 37°42' E 023°42'510.9
2018-Jun-14 18:00N 37°46' E 023°39'510.5
2018-Jun-14 17:30N 37°52' E 023°37'5 9.8
2018-Jun-14 17:00N 37°56' E 023°36'4 7.1
2018-Jun-14 16:30N 37°59' E 023°33'4 7.1
2018-Jun-14 16:00N 38°02' E 023°36'0 0.3
2018-Jun-14 15:29N 38°02' E 023°36'0 0.0
2018-Jun-14 14:59N 38°02' E 023°36'0 0.0
2018-Jun-14 14:26N 38°02' E 023°36'0 0.0
2018-Jun-14 13:59N 38°02' E 023°36'0 0.0
2018-Jun-14 13:23N 38°02' E 023°36'0 0.0
2018-Jun-14 12:59N 38°02' E 023°36'0 0.0
2018-Jun-14 12:26N 38°02' E 023°36'0 0.0
2018-Jun-14 11:56N 38°02' E 023°36'0 0.0
2018-Jun-14 11:20N 38°02' E 023°36'0 0.0
2018-Jun-14 10:50N 38°02' E 023°36'0 0.0
2018-Jun-14 10:26N 38°02' E 023°36'0 0.0
2018-Jun-14 09:56N 38°02' E 023°36'0 0.0
2018-Jun-14 09:26N 38°02' E 023°36'0 0.0
2018-Jun-14 08:53N 38°02' E 023°36'0 0.0
2018-Jun-14 08:14N 38°02' E 023°36'0 0.0
2018-Jun-14 07:59N 38°02' E 023°36'0 0.0
2018-Jun-14 07:29N 38°02' E 023°36'0 0.0
2018-Jun-14 06:56N 38°02' E 023°36'0 0.0
2018-Jun-14 06:26N 38°02' E 023°36'0 0.0
2018-Jun-14 05:53N 38°02' E 023°36'0 0.0
2018-Jun-14 05:29N 38°02' E 023°36'0 0.0
2018-Jun-14 04:53N 38°02' E 023°36'0 0.0
2018-Jun-14 04:26N 38°02' E 023°36'0 0.0
2018-Jun-14 03:50N 38°02' E 023°36'0 0.0
2018-Jun-14 03:26N 38°02' E 023°36'0 0.0
2018-Jun-14 02:56N 38°02' E 023°36'0 0.0
2018-Jun-14 02:14N 38°02' E 023°36'0 0.0
2018-Jun-14 01:56N 38°02' E 023°36'0 0.0
2018-Jun-14 01:14N 38°02' E 023°36'0 0.0
2018-Jun-14 00:53N 38°02' E 023°36'0 0.0
2018-Jun-14 00:14N 38°02' E 023°36'0 0.0
2018-Jun-13 23:56N 38°02' E 023°36'0 0.0
2018-Jun-13 22:23N 38°02' E 023°36'0 0.0
2018-Jun-13 21:56N 38°02' E 023°36'0 0.4
2018-Jun-13 21:30N 38°02' E 023°36'3 5.2
2018-Jun-13 21:00N 38°01' E 023°32'1 1.2
2018-Jun-13 20:28N 38°01' E 023°31'0 0.1
2018-Jun-13 19:58N 38°01' E 023°31'0 0.1
2018-Jun-13 19:28N 38°01' E 023°32'0 0.0
2018-Jun-13 18:58N 38°01' E 023°31'0 0.0
2018-Jun-13 18:28N 38°01' E 023°31'0 0.0
2018-Jun-13 17:58N 38°01' E 023°31'0 0.0
2018-Jun-13 17:28N 38°01' E 023°31'0 0.0
2018-Jun-13 16:58N 38°01' E 023°31'0 0.0
2018-Jun-13 16:28N 38°01' E 023°31'0 0.0
2018-Jun-13 15:58N 38°01' E 023°31'0 0.0
2018-Jun-13 15:28N 38°01' E 023°32'0 0.0
2018-Jun-13 14:58N 38°01' E 023°32'0 0.0
2018-Jun-13 14:28N 38°01' E 023°31'0 0.0
2018-Jun-13 13:58N 38°01' E 023°31'0 0.0
2018-Jun-13 13:28N 38°01' E 023°31'0 0.0
2018-Jun-13 12:58N 38°01' E 023°31'0 0.0
2018-Jun-13 12:28N 38°01' E 023°31'0 0.0
2018-Jun-13 11:58N 38°01' E 023°32'0 0.0
2018-Jun-13 11:28N 38°01' E 023°32'0 0.0
2018-Jun-13 10:58N 38°01' E 023°32'0 0.0
2018-Jun-13 10:28N 38°01' E 023°32'0 0.0
2018-Jun-13 09:58N 38°01' E 023°32'0 0.0
2018-Jun-13 09:28N 38°01' E 023°32'0 0.0
2018-Jun-13 08:58N 38°01' E 023°32'0 0.0
2018-Jun-13 08:28N 38°01' E 023°32'0 0.1
2018-Jun-13 07:58N 38°01' E 023°31'0 0.0
2018-Jun-13 07:28N 38°01' E 023°31'0 0.1
2018-Jun-13 06:58N 38°01' E 023°32'0 0.0
2018-Jun-13 06:28N 38°01' E 023°32'  

Dump ship's entire track history